Skip Navigation Links
NOAA logo - Click to go to the NOAA homepage
NOAA's National Weather Service
Alaska Aviation Weather Unit
  NWS logo - Click to go to the NWS homepage
Left Navbar Graphic     03 AKDT = 11 GMT

   
NOAA is celebrating 200 years of science, service, and stewardship. Visit the NOAA 200th celebration Web site to learn more.
USA.gov is the U.S. Government's official Web portal to all Federal, state and local government Web resources and services.
Facebook
NWS on Facebook

AAWU Home :: Display TAF Add Bookmark
TAF PASY 291010Z 2910/3012 11015G20KT 8000 -SN BKN015 610158
      QNH2951INS
      TEMPO 2914/2920 6000 -RASN BKN020 620208 TX05/3000Z
      TN02/2915Z LIMITED METWATCH 2906 TIL 2914=
METAR PASY 290556Z AUTO 10SM FEW016 SCT023 BKN065 03/ A2955=

METAR PASY 290656Z AUTO 10SM FEW027 03/ A2956=

METAR PASY 290756Z AUTO 10SM BKN080 02/ A2956=

METAR PASY 290856Z AUTO 10SM BKN017 BKN028 BKN080 02/ A2956=

METAR PASY 290956Z 08015KT 5SM -SN BR SCT014 BKN017 BKN027 02/00
     A2957=

METAR PASY 291056Z AUTO 10008KT 7SM BKN017 OVC024 02/00 A2957 RMK
AO2 SNE38 SLP013 WND DATA ESTMD T00170000 TSNO $=


NOAA's National Weather Service
Alaska Aviation Weather Unit
6930 Sand Lake Road
Anchorage, AK 99502-1845
Disclaimer
Credits
Glossary
Privacy Policy
About Us
Career Opportunities
Contact AAWU Internet Services Site last modified: April, 17th 2012